createdAt,value
2023-03-16T00:00:47.838Z,95.01
2023-03-16T00:03:14.277Z,95.06
2023-03-16T00:05:40.624Z,95.28
2023-03-16T00:08:06.983Z,95.23
2023-03-16T00:10:33.382Z,95.33
2023-03-16T00:12:59.698Z,95.22
2023-03-16T00:15:26.053Z,95.21
2023-03-16T00:17:52.415Z,95.52
2023-03-16T00:20:18.835Z,95.55
2023-03-16T00:22:45.138Z,95.69
2023-03-16T00:33:23.791Z,96.12
2023-03-16T00:35:50.197Z,96.00
2023-03-16T00:38:16.493Z,96.60
2023-03-16T00:40:42.874Z,96.86
2023-03-16T00:43:09.165Z,97.52
2023-03-16T00:45:35.588Z,97.58
2023-03-16T00:48:01.827Z,97.81
2023-03-16T00:50:28.560Z,98.46
2023-03-16T00:52:54.638Z,98.71
2023-03-16T00:55:21.008Z,98.81
2023-03-16T00:57:47.404Z,98.86
2023-03-16T01:00:13.714Z,99.07
2023-03-16T01:02:40.075Z,99.30
2023-03-16T01:05:06.410Z,99.08
2023-03-16T01:07:32.775Z,99.01
2023-03-16T01:09:59.173Z,99.07
2023-03-16T01:12:25.531Z,98.95
2023-03-16T01:14:51.911Z,99.03
2023-03-16T01:17:18.236Z,99.13
2023-03-16T01:19:44.610Z,98.20
2023-03-16T01:22:10.933Z,98.52
2023-03-16T01:24:37.312Z,99.00
2023-03-16T01:27:03.674Z,98.86
2023-03-16T01:29:30.079Z,98.48
2023-03-16T01:31:56.432Z,98.67
2023-03-16T01:34:22.776Z,98.88
2023-03-16T01:36:49.091Z,99.09
2023-03-16T01:39:15.514Z,98.87
2023-03-16T01:41:41.818Z,99.09
2023-03-16T01:44:08.223Z,99.71
2023-03-16T01:46:34.645Z,100.00
2023-03-16T01:49:00.984Z,100.00
2023-03-16T01:51:27.346Z,100.00
2023-03-16T01:53:53.710Z,100.00
2023-03-16T01:56:20.083Z,100.00
2023-03-16T01:58:46.453Z,100.00
2023-03-16T02:01:12.862Z,99.93
2023-03-16T02:03:39.252Z,99.66
2023-03-16T02:06:05.620Z,99.76
2023-03-16T02:08:31.991Z,99.62
2023-03-16T02:10:58.350Z,99.71
2023-03-16T02:13:24.717Z,99.33
2023-03-16T02:15:51.144Z,99.87
2023-03-16T02:18:17.378Z,100.00
2023-03-16T02:20:43.756Z,100.00
2023-03-16T02:23:10.104Z,100.00
2023-03-16T02:25:36.426Z,100.00
2023-03-16T02:28:02.769Z,100.00
2023-03-16T02:30:29.562Z,100.00
2023-03-16T02:32:55.534Z,100.00
2023-03-16T02:35:21.880Z,100.00
2023-03-16T02:37:48.261Z,100.00
2023-03-16T02:40:14.615Z,100.00
2023-03-16T02:42:40.944Z,100.00
2023-03-16T02:45:07.316Z,100.00
2023-03-16T02:47:33.643Z,100.00
2023-03-16T02:55:28.594Z,100.00
2023-03-16T02:57:54.940Z,100.00
2023-03-16T03:00:21.248Z,100.00
2023-03-16T03:02:47.634Z,100.00
2023-03-16T03:05:13.922Z,100.00
2023-03-16T03:07:40.320Z,100.00
2023-03-16T03:10:06.641Z,100.00
2023-03-16T03:12:32.981Z,100.00
2023-03-16T03:14:59.330Z,100.00
2023-03-16T03:17:25.705Z,100.00
2023-03-16T03:19:52.041Z,100.00
2023-03-16T03:22:18.400Z,100.00
2023-03-16T03:24:44.772Z,100.00
2023-03-16T03:27:11.143Z,100.00
2023-03-16T03:29:37.505Z,100.00
2023-03-16T03:32:03.847Z,100.00
2023-03-16T03:34:30.171Z,100.00
2023-03-16T03:36:56.652Z,100.00
2023-03-16T03:39:22.926Z,100.00
2023-03-16T03:41:49.270Z,100.00
2023-03-16T03:44:15.609Z,100.00
2023-03-16T03:46:42.055Z,100.00
2023-03-16T03:49:08.285Z,100.00
2023-03-16T03:51:34.680Z,100.00
2023-03-16T03:54:01.035Z,100.00
2023-03-16T03:56:27.410Z,100.00
2023-03-16T03:58:53.786Z,100.00
2023-03-16T04:01:20.108Z,100.00
2023-03-16T04:03:46.469Z,100.00
2023-03-16T04:06:12.853Z,100.00
2023-03-16T04:08:39.208Z,100.00
2023-03-16T04:11:05.615Z,100.00
2023-03-16T04:13:31.963Z,100.00
2023-03-16T04:15:58.294Z,100.00
2023-03-16T04:18:24.620Z,100.00
2023-03-16T04:20:51.013Z,100.00
2023-03-16T04:23:17.353Z,100.00
2023-03-16T04:25:43.715Z,100.00
2023-03-16T04:28:10.079Z,100.00
2023-03-16T04:30:36.470Z,100.00
2023-03-16T04:33:02.796Z,100.00
2023-03-16T04:35:29.160Z,100.00
2023-03-16T04:37:55.551Z,100.00
2023-03-16T04:40:21.895Z,100.00
2023-03-16T04:42:48.216Z,100.00
2023-03-16T04:45:14.633Z,100.00
2023-03-16T04:47:40.986Z,100.00
2023-03-16T04:50:07.325Z,100.00
2023-03-16T04:52:33.687Z,100.00
2023-03-16T04:55:00.060Z,100.00
2023-03-16T04:57:26.380Z,100.00
2023-03-16T04:59:52.775Z,100.00
2023-03-16T05:02:19.104Z,100.00
2023-03-16T05:04:45.443Z,100.00
2023-03-16T05:07:11.779Z,100.00
2023-03-16T05:09:38.159Z,100.00
2023-03-16T05:12:04.473Z,100.00
2023-03-16T05:14:30.845Z,100.00
2023-03-16T05:16:57.187Z,100.00
2023-03-16T05:19:23.527Z,100.00
2023-03-16T05:21:49.890Z,100.00
2023-03-16T05:24:16.232Z,100.00
2023-03-16T05:26:42.597Z,100.00
2023-03-16T05:29:08.933Z,100.00
2023-03-16T05:31:35.365Z,100.00
2023-03-16T05:34:01.728Z,100.00
2023-03-16T05:36:28.020Z,100.00
2023-03-16T05:38:54.390Z,100.00
2023-03-16T05:41:20.744Z,100.00
2023-03-16T05:43:47.095Z,100.00
2023-03-16T05:46:13.454Z,100.00
2023-03-16T05:48:42.381Z,100.00
2023-03-16T05:51:08.758Z,100.00
2023-03-16T05:53:35.135Z,100.00
2023-03-16T05:56:01.498Z,100.00
2023-03-16T05:58:27.907Z,100.00
2023-03-16T06:00:54.260Z,100.00
2023-03-16T06:03:20.719Z,100.00
2023-03-16T06:05:47.059Z,100.00
2023-03-16T06:08:13.451Z,100.00
2023-03-16T06:10:39.805Z,100.00
2023-03-16T06:13:06.176Z,100.00
2023-03-16T06:15:32.804Z,100.00
2023-03-16T06:17:59.213Z,100.00
2023-03-16T06:20:25.610Z,100.00
2023-03-16T06:22:52.195Z,100.00
2023-03-16T06:25:18.556Z,100.00
2023-03-16T06:27:45.132Z,100.00
2023-03-16T06:30:11.477Z,100.00
2023-03-16T06:32:37.864Z,100.00
2023-03-16T06:35:04.150Z,100.00
2023-03-16T06:37:30.504Z,100.00
2023-03-16T06:39:56.864Z,100.00
2023-03-16T06:42:23.239Z,100.00
2023-03-16T06:44:49.604Z,100.00
2023-03-16T06:47:15.942Z,100.00
2023-03-16T06:49:42.307Z,100.00
2023-03-16T06:52:08.718Z,100.00
2023-03-16T06:54:35.078Z,100.00
2023-03-16T06:57:01.420Z,100.00
2023-03-16T06:59:27.811Z,100.00
2023-03-16T07:01:54.164Z,100.00
2023-03-16T07:04:20.582Z,100.00
2023-03-16T07:06:46.846Z,100.00
2023-03-16T07:09:13.222Z,100.00
2023-03-16T07:11:39.605Z,100.00
2023-03-16T07:14:06.027Z,100.00
2023-03-16T07:16:32.527Z,100.00
2023-03-16T07:18:58.806Z,100.00
2023-03-16T07:21:25.172Z,100.00
2023-03-16T07:23:51.572Z,100.00
2023-03-16T07:26:17.934Z,100.00
2023-03-16T07:28:44.305Z,100.00
2023-03-16T07:31:10.681Z,100.00
2023-03-16T07:33:37.101Z,100.00
2023-03-16T07:36:03.580Z,100.00
2023-03-16T07:38:29.859Z,100.00
2023-03-16T07:40:56.261Z,100.00
2023-03-16T07:43:22.636Z,100.00
2023-03-16T07:45:49.067Z,100.00
2023-03-16T07:48:15.437Z,100.00
2023-03-16T07:50:41.797Z,100.00
2023-03-16T07:53:08.182Z,100.00
2023-03-16T07:55:36.141Z,100.00
2023-03-16T07:58:02.709Z,100.00
2023-03-16T08:00:29.320Z,100.00
2023-03-16T08:02:55.510Z,100.00
2023-03-16T08:05:21.842Z,100.00
2023-03-16T08:07:48.219Z,100.00
2023-03-16T08:10:14.604Z,100.00
2023-03-16T08:12:40.980Z,100.00
2023-03-16T08:15:07.292Z,100.00
2023-03-16T08:17:33.661Z,100.00
2023-03-16T08:20:00.099Z,100.00
2023-03-16T08:22:26.462Z,100.00
2023-03-16T08:24:52.840Z,100.00
2023-03-16T08:27:19.222Z,100.00
2023-03-16T08:29:45.680Z,100.00
2023-03-16T08:32:12.070Z,100.00
2023-03-16T08:34:38.409Z,100.00
2023-03-16T08:37:04.823Z,100.00
2023-03-16T08:39:31.198Z,100.00
2023-03-16T08:41:57.592Z,100.00
2023-03-16T08:44:23.925Z,100.00
2023-03-16T08:46:50.282Z,100.00
2023-03-16T08:49:16.650Z,100.00
2023-03-16T08:51:44.884Z,100.00
2023-03-16T08:54:09.314Z,100.00
2023-03-16T08:56:35.739Z,100.00
2023-03-16T08:59:02.059Z,100.00
2023-03-16T09:01:28.585Z,100.00
2023-03-16T09:03:54.966Z,100.00
2023-03-16T09:06:21.258Z,100.00
2023-03-16T09:08:47.933Z,100.00
2023-03-16T09:11:14.238Z,100.00
2023-03-16T09:13:40.610Z,100.00
2023-03-16T09:16:07.036Z,100.00
2023-03-16T09:18:33.347Z,100.00
2023-03-16T09:21:00.189Z,100.00
2023-03-16T09:23:26.137Z,100.00
2023-03-16T09:25:52.523Z,100.00
2023-03-16T09:28:21.001Z,100.00
2023-03-16T09:30:45.377Z,100.00
2023-03-16T09:33:11.811Z,100.00
2023-03-16T09:35:38.344Z,100.00
2023-03-16T09:38:06.324Z,99.26
2023-03-16T09:40:31.089Z,100.00
2023-03-16T09:42:57.386Z,96.70
2023-03-16T09:45:23.779Z,91.69
2023-03-16T09:47:50.145Z,91.48
2023-03-16T09:50:16.624Z,90.49
2023-03-16T09:52:42.899Z,89.58
2023-03-16T09:55:09.275Z,89.21
2023-03-16T09:57:35.628Z,89.79
2023-03-16T10:00:02.187Z,88.87
2023-03-16T10:02:28.524Z,88.50
2023-03-16T10:04:54.870Z,89.04
2023-03-16T10:07:21.241Z,89.34
2023-03-16T10:09:47.546Z,90.16
2023-03-16T10:12:13.907Z,90.68
2023-03-16T10:14:40.228Z,90.13
2023-03-16T10:17:06.782Z,89.66
2023-03-16T10:19:33.178Z,89.20
2023-03-16T10:21:59.604Z,89.26
2023-03-16T10:24:26.029Z,88.07
2023-03-16T10:26:52.416Z,87.96
2023-03-16T10:29:18.805Z,86.22
2023-03-16T10:31:45.566Z,85.57
2023-03-16T10:34:12.051Z,84.84
2023-03-16T10:36:38.421Z,85.03
2023-03-16T10:39:04.819Z,84.33
2023-03-16T10:41:31.141Z,84.48
2023-03-16T10:43:57.573Z,84.64
2023-03-16T10:46:24.074Z,83.68
2023-03-16T10:48:50.420Z,84.92
2023-03-16T10:51:16.785Z,84.29
2023-03-16T10:53:43.145Z,84.16
2023-03-16T10:56:09.529Z,82.87
2023-03-16T10:58:35.872Z,82.99
2023-03-16T11:01:02.298Z,82.77
2023-03-16T11:03:28.616Z,83.41
2023-03-16T11:05:54.967Z,82.69
2023-03-16T11:08:21.314Z,82.63
2023-03-16T11:10:55.501Z,83.46
2023-03-16T11:13:14.027Z,82.77
2023-03-16T11:15:40.412Z,82.95
2023-03-16T11:18:07.268Z,83.40
2023-03-16T11:20:33.667Z,81.92
2023-03-16T11:23:00.048Z,81.42
2023-03-16T11:25:26.764Z,80.76
2023-03-16T11:27:52.809Z,81.22
2023-03-16T11:30:19.148Z,80.55
2023-03-16T11:32:45.570Z,80.24
2023-03-16T11:35:11.832Z,79.55
2023-03-16T11:37:38.216Z,79.73
2023-03-16T11:40:04.511Z,80.26
2023-03-16T11:42:31.135Z,79.51
2023-03-16T11:44:57.469Z,79.81
2023-03-16T11:47:23.805Z,79.73
2023-03-16T11:49:50.167Z,79.63
2023-03-16T11:52:16.571Z,79.92
2023-03-16T11:54:42.895Z,79.68
2023-03-16T11:57:09.275Z,79.76
2023-03-16T11:59:35.650Z,80.41
2023-03-16T12:02:02.083Z,79.92
2023-03-16T12:04:28.474Z,80.39
2023-03-16T12:06:54.811Z,80.79
2023-03-16T12:09:21.241Z,80.93
2023-03-16T12:11:47.666Z,80.86
2023-03-16T12:14:13.979Z,80.78
2023-03-16T12:16:49.191Z,80.61
2023-03-16T12:19:06.735Z,80.78
2023-03-16T12:21:33.069Z,80.91
2023-03-16T12:23:59.441Z,81.34
2023-03-16T12:26:26.048Z,81.79
2023-03-16T12:28:52.383Z,82.12
2023-03-16T12:31:18.787Z,82.37
2023-03-16T12:33:45.081Z,82.63
2023-03-16T12:36:11.522Z,82.42
2023-03-16T12:38:38.173Z,82.48
2023-03-16T12:41:04.582Z,82.36
2023-03-16T12:43:31.026Z,82.76
2023-03-16T12:45:57.364Z,82.65
2023-03-16T12:48:23.976Z,82.29
2023-03-16T12:50:50.366Z,82.19
2023-03-16T12:53:16.773Z,82.50
2023-03-16T12:55:43.191Z,83.14
2023-03-16T12:58:09.524Z,83.75
2023-03-16T13:00:35.938Z,83.96
2023-03-16T13:03:02.250Z,85.27
2023-03-16T13:05:28.922Z,87.36
2023-03-16T13:07:55.054Z,88.16
2023-03-16T13:10:21.425Z,89.12
2023-03-16T13:12:47.962Z,89.97
2023-03-16T13:15:14.346Z,90.74
2023-03-16T13:17:40.696Z,91.66
2023-03-16T13:20:07.963Z,92.05
2023-03-16T13:22:33.417Z,92.21
2023-03-16T13:24:59.791Z,92.04
2023-03-16T13:27:26.098Z,92.22
2023-03-16T13:29:54.880Z,92.56
2023-03-16T13:32:21.477Z,92.29
2023-03-16T13:34:47.942Z,92.36
2023-03-16T13:37:14.316Z,92.54
2023-03-16T13:39:40.744Z,92.63
2023-03-16T13:42:07.075Z,92.34
2023-03-16T13:44:34.232Z,91.39
2023-03-16T13:47:00.558Z,90.75
2023-03-16T13:49:26.952Z,90.27
2023-03-16T13:51:55.417Z,89.80
2023-03-16T13:54:21.800Z,89.45
2023-03-16T13:56:48.156Z,89.66
2023-03-16T13:59:14.501Z,89.28
2023-03-16T14:01:40.881Z,89.76
2023-03-16T14:04:07.220Z,90.22
2023-03-16T14:06:33.576Z,90.45
2023-03-16T14:09:00.027Z,89.67
2023-03-16T14:11:26.528Z,89.92
2023-03-16T14:13:52.899Z,89.41
2023-03-16T14:16:19.288Z,89.24
2023-03-16T14:18:45.645Z,89.35
2023-03-16T14:21:12.041Z,89.47
2023-03-16T14:23:38.482Z,89.84
2023-03-16T14:26:04.856Z,89.02
2023-03-16T14:28:32.292Z,89.47
2023-03-16T14:30:57.611Z,89.62
2023-03-16T14:33:23.926Z,89.95
2023-03-16T14:35:53.596Z,90.10
2023-03-16T14:38:16.646Z,90.46
2023-03-16T14:40:43.046Z,90.68
2023-03-16T14:43:09.461Z,91.01
2023-03-16T14:45:35.806Z,91.36
2023-03-16T14:48:02.182Z,91.25
2023-03-16T14:50:28.553Z,90.91
2023-03-16T14:52:55.008Z,91.47
2023-03-16T14:55:21.346Z,91.92
2023-03-16T14:57:47.682Z,92.12
2023-03-16T15:00:14.078Z,92.79
2023-03-16T15:02:40.432Z,93.47
2023-03-16T15:05:06.819Z,94.10
2023-03-16T15:07:33.199Z,94.50
2023-03-16T15:09:59.928Z,94.73
2023-03-16T15:12:26.300Z,94.51
2023-03-16T15:14:52.623Z,94.32
2023-03-16T15:17:18.977Z,94.46
2023-03-16T15:19:45.332Z,94.64
2023-03-16T15:22:11.683Z,94.78
2023-03-16T15:24:38.077Z,94.90
2023-03-16T15:27:04.489Z,95.08
2023-03-16T15:29:30.860Z,95.49
2023-03-16T15:31:57.300Z,95.55
2023-03-16T15:34:23.635Z,95.36
2023-03-16T15:36:49.987Z,95.38
2023-03-16T15:39:16.374Z,95.73
2023-03-16T15:41:47.697Z,96.12
2023-03-16T15:44:09.124Z,96.21
2023-03-16T15:46:35.501Z,96.30
2023-03-16T15:49:01.867Z,96.45
2023-03-16T15:51:28.261Z,97.44
2023-03-16T15:53:54.593Z,98.56
2023-03-16T15:56:21.030Z,99.15
2023-03-16T15:58:47.399Z,99.94
2023-03-16T16:01:13.766Z,100.00
2023-03-16T16:03:40.096Z,100.00
2023-03-16T16:06:06.499Z,100.00
2023-03-16T16:08:32.844Z,100.00
2023-03-16T16:10:59.238Z,100.00
2023-03-16T16:13:34.104Z,100.00
2023-03-16T16:15:53.670Z,100.00
2023-03-16T16:18:21.889Z,100.00
2023-03-16T16:20:47.233Z,100.00
2023-03-16T16:23:13.618Z,100.00
2023-03-16T16:25:40.033Z,100.00
2023-03-16T16:28:06.379Z,100.00
2023-03-16T16:30:32.856Z,100.00
2023-03-16T16:32:59.346Z,100.00
2023-03-16T16:35:25.611Z,100.00
2023-03-16T16:37:51.927Z,100.00
2023-03-16T16:40:18.412Z,100.00
2023-03-16T16:42:44.772Z,100.00
2023-03-16T16:45:11.161Z,100.00
2023-03-16T16:47:37.515Z,100.00
2023-03-16T16:50:03.972Z,100.00
2023-03-16T16:52:30.330Z,100.00
2023-03-16T16:54:56.671Z,100.00
2023-03-16T16:57:23.066Z,100.00
2023-03-16T16:59:49.414Z,100.00
2023-03-16T17:02:15.780Z,100.00
2023-03-16T17:04:42.704Z,100.00
2023-03-16T17:07:09.162Z,100.00
2023-03-16T17:09:35.550Z,100.00
2023-03-16T17:12:01.881Z,100.00
2023-03-16T17:14:30.440Z,100.00
2023-03-16T17:16:56.841Z,100.00
2023-03-16T17:19:23.164Z,100.00
2023-03-16T17:21:49.536Z,100.00
2023-03-16T17:24:15.939Z,100.00
2023-03-16T17:26:42.287Z,100.00
2023-03-16T17:29:09.039Z,100.00
2023-03-16T17:31:35.434Z,100.00
2023-03-16T17:34:01.793Z,100.00
2023-03-16T17:36:28.177Z,100.00
2023-03-16T17:38:54.581Z,100.00
2023-03-16T17:41:20.929Z,100.00
2023-03-16T17:43:47.260Z,100.00
2023-03-16T17:46:17.159Z,100.00
2023-03-16T17:48:40.040Z,100.00
2023-03-16T17:51:06.469Z,100.00
2023-03-16T17:53:32.880Z,100.00
2023-03-16T17:55:59.271Z,100.00
2023-03-16T17:58:25.594Z,100.00
2023-03-16T18:00:52.058Z,100.00
2023-03-16T18:03:18.424Z,100.00
2023-03-16T18:05:44.777Z,100.00
2023-03-16T18:08:11.081Z,100.00
2023-03-16T18:10:37.476Z,100.00
2023-03-16T18:13:03.938Z,100.00
2023-03-16T18:15:30.304Z,100.00
2023-03-16T18:17:56.639Z,100.00
2023-03-16T18:20:23.103Z,100.00
2023-03-16T18:22:49.436Z,100.00
2023-03-16T18:25:15.840Z,100.00
2023-03-16T18:27:42.242Z,100.00
2023-03-16T18:30:08.610Z,100.00
2023-03-16T18:32:34.941Z,100.00
2023-03-16T18:35:03.537Z,100.00
2023-03-16T18:37:27.685Z,100.00
2023-03-16T18:39:54.038Z,100.00
2023-03-16T18:42:20.421Z,100.00
2023-03-16T18:44:46.829Z,100.00
2023-03-16T18:47:13.152Z,100.00
2023-03-16T18:49:39.801Z,100.00
2023-03-16T18:52:06.152Z,100.00
2023-03-16T18:54:32.496Z,100.00
2023-03-16T18:56:59.170Z,100.00
2023-03-16T18:59:25.530Z,100.00
2023-03-16T19:01:51.909Z,100.00
2023-03-16T19:04:18.378Z,100.00
2023-03-16T19:06:44.805Z,100.00
2023-03-16T19:09:11.213Z,100.00
2023-03-16T19:11:37.558Z,100.00
2023-03-16T19:14:04.312Z,100.00
2023-03-16T19:16:30.709Z,100.00
2023-03-16T19:18:56.961Z,100.00
2023-03-16T19:21:23.336Z,100.00
2023-03-16T19:23:49.704Z,100.00
2023-03-16T19:26:16.103Z,100.00
2023-03-16T19:28:42.505Z,100.00
2023-03-16T19:31:08.865Z,100.00
2023-03-16T19:33:35.280Z,100.00
2023-03-16T19:36:01.711Z,100.00
2023-03-16T19:38:28.090Z,100.00
2023-03-16T19:40:54.432Z,100.00
2023-03-16T19:43:20.809Z,100.00
2023-03-16T19:45:47.270Z,100.00
2023-03-16T19:48:13.620Z,100.00
2023-03-16T19:50:40.106Z,100.00
2023-03-16T19:53:06.498Z,100.00
2023-03-16T19:55:32.893Z,100.00
2023-03-16T19:57:59.348Z,100.00
2023-03-16T20:00:25.810Z,100.00
2023-03-16T20:02:52.295Z,100.00
2023-03-16T20:05:18.788Z,100.00
2023-03-16T20:07:45.437Z,100.00
2023-03-16T20:10:11.863Z,100.00
2023-03-16T20:12:38.138Z,100.00
2023-03-16T20:15:04.559Z,100.00
2023-03-16T20:17:30.966Z,100.00
2023-03-16T20:19:57.360Z,100.00
2023-03-16T20:22:23.850Z,100.00
2023-03-16T20:24:50.216Z,100.00
2023-03-16T20:27:16.610Z,100.00
2023-03-16T20:29:42.903Z,100.00
2023-03-16T20:32:09.570Z,100.00
2023-03-16T20:34:35.986Z,100.00
2023-03-16T20:37:04.696Z,100.00
2023-03-16T20:39:31.135Z,100.00
2023-03-16T20:41:57.482Z,100.00
2023-03-16T20:44:23.890Z,100.00
2023-03-16T20:46:50.271Z,100.00
2023-03-16T20:49:16.681Z,100.00
2023-03-16T20:51:43.034Z,100.00
2023-03-16T20:54:09.426Z,100.00
2023-03-16T20:56:35.773Z,100.00
2023-03-16T20:59:02.148Z,100.00
2023-03-16T21:01:28.550Z,100.00
2023-03-16T21:03:54.867Z,100.00
2023-03-16T21:06:21.349Z,100.00
2023-03-16T21:08:47.687Z,100.00
2023-03-16T21:11:14.042Z,100.00
2023-03-16T21:13:40.365Z,100.00
2023-03-16T21:16:06.788Z,100.00
2023-03-16T21:18:33.145Z,100.00
2023-03-16T21:20:59.467Z,100.00
2023-03-16T21:23:25.853Z,100.00
2023-03-16T21:25:52.239Z,100.00
2023-03-16T21:28:18.606Z,100.00
2023-03-16T21:30:44.996Z,100.00
2023-03-16T21:33:11.316Z,100.00
2023-03-16T21:35:37.726Z,100.00
2023-03-16T21:38:04.075Z,100.00
2023-03-16T21:40:30.781Z,100.00
2023-03-16T21:42:56.804Z,100.00
2023-03-16T21:45:23.191Z,100.00
2023-03-16T21:47:50.533Z,100.00
2023-03-16T21:50:16.909Z,100.00
2023-03-16T21:52:43.258Z,100.00
2023-03-16T21:55:11.079Z,100.00
2023-03-16T21:57:35.928Z,100.00
2023-03-16T22:00:02.363Z,100.00
2023-03-16T22:02:28.757Z,100.00
2023-03-16T22:04:55.046Z,100.00
2023-03-16T22:07:21.419Z,100.00
2023-03-16T22:09:47.824Z,100.00
2023-03-16T22:12:14.191Z,100.00
2023-03-16T22:14:40.529Z,100.00
2023-03-16T22:17:06.927Z,100.00
2023-03-16T22:19:33.282Z,100.00
2023-03-16T22:21:59.674Z,100.00
2023-03-16T22:24:26.082Z,100.00
2023-03-16T22:26:52.424Z,100.00
2023-03-16T22:29:18.798Z,100.00
2023-03-16T22:31:45.189Z,100.00
2023-03-16T22:34:11.472Z,100.00
2023-03-16T22:36:38.882Z,100.00
2023-03-16T22:39:05.245Z,100.00
2023-03-16T22:41:31.569Z,100.00
2023-03-16T22:43:58.012Z,100.00
2023-03-16T22:46:24.720Z,100.00
2023-03-16T22:48:51.013Z,100.00
2023-03-16T22:51:17.376Z,100.00
2023-03-16T22:53:44.045Z,100.00
2023-03-16T22:56:10.508Z,100.00
2023-03-16T22:58:36.838Z,100.00
2023-03-16T23:01:03.254Z,100.00
2023-03-16T23:03:29.611Z,100.00
2023-03-16T23:05:55.970Z,100.00
2023-03-16T23:08:22.371Z,100.00
2023-03-16T23:10:48.742Z,100.00
2023-03-16T23:13:15.097Z,100.00
2023-03-16T23:15:41.485Z,100.00
2023-03-16T23:18:07.880Z,100.00
2023-03-16T23:20:34.258Z,100.00
2023-03-16T23:23:00.592Z,100.00
2023-03-16T23:25:26.959Z,100.00
2023-03-16T23:27:53.340Z,100.00
2023-03-16T23:30:19.697Z,100.00
2023-03-16T23:32:46.177Z,100.00
2023-03-16T23:35:13.468Z,100.00
2023-03-16T23:37:39.870Z,100.00
2023-03-16T23:40:06.178Z,100.00
2023-03-16T23:42:32.567Z,100.00
2023-03-16T23:44:58.985Z,100.00
2023-03-16T23:47:25.383Z,100.00
2023-03-16T23:49:51.698Z,100.00
2023-03-16T23:52:18.065Z,100.00
2023-03-16T23:54:44.396Z,100.00
2023-03-16T23:57:10.758Z,100.00
2023-03-16T23:59:37.131Z,100.00
